sensor_id;sensor_type;location;lat;lon;timestamp;noise_LAeq;noise_LA_min;noise_LA_max;noise_LA01;noise_LA95
51665;Laerm;37751;52.408;12.536;2023-07-13T00:00:57;104.07;96.37;108.37;;
51665;Laerm;37751;52.408;12.536;2023-07-13T00:03:25;102.67;99.71;107.57;;
51665;Laerm;37751;52.408;12.536;2023-07-13T00:05:59;101.93;58.62;105.91;;
51665;Laerm;37751;52.408;12.536;2023-07-13T00:08:31;103.21;100.20;106.66;;
51665;Laerm;37751;52.408;12.536;2023-07-13T00:11:04;102.65;96.92;107.84;;
51665;Laerm;37751;52.408;12.536;2023-07-13T00:13:31;101.73;99.57;106.58;;
51665;Laerm;37751;52.408;12.536;2023-07-13T00:15:59;101.99;94.33;106.54;;
51665;Laerm;37751;52.408;12.536;2023-07-13T00:18:28;101.79;90.98;106.19;;
51665;Laerm;37751;52.408;12.536;2023-07-13T00:20:58;101.26;99.06;104.80;;
51665;Laerm;37751;52.408;12.536;2023-07-13T00:23:34;100.99;93.74;104.92;;
51665;Laerm;37751;52.408;12.536;2023-07-13T00:26:05;101.10;94.21;105.05;;
51665;Laerm;37751;52.408;12.536;2023-07-13T00:28:34;100.92;94.69;104.44;;
51665;Laerm;37751;52.408;12.536;2023-07-13T00:31:02;101.20;99.57;103.98;;
51665;Laerm;37751;52.408;12.536;2023-07-13T00:33:32;101.19;94.61;105.75;;
51665;Laerm;37751;52.408;12.536;2023-07-13T00:36:01;101.03;97.49;103.49;;
51665;Laerm;37751;52.408;12.536;2023-07-13T00:38:29;101.85;95.22;109.99;;
51665;Laerm;37751;52.408;12.536;2023-07-13T00:40:57;101.16;90.77;106.20;;
51665;Laerm;37751;52.408;12.536;2023-07-13T00:43:28;100.70;90.71;104.95;;
51665;Laerm;37751;52.408;12.536;2023-07-13T00:48:29;100.61;90.79;104.95;;
51665;Laerm;37751;52.408;12.536;2023-07-13T00:51:00;100.26;94.28;104.93;;
51665;Laerm;37751;52.408;12.536;2023-07-13T00:53:29;104.78;54.35;112.78;;
51665;Laerm;37751;52.408;12.536;2023-07-13T00:55:59;105.43;100.27;111.56;;
51665;Laerm;37751;52.408;12.536;2023-07-13T00:58:27;105.47;98.72;111.06;;
51665;Laerm;37751;52.408;12.536;2023-07-13T01:00:57;105.31;97.96;110.80;;
51665;Laerm;37751;52.408;12.536;2023-07-13T01:03:25;105.66;103.40;111.26;;
51665;Laerm;37751;52.408;12.536;2023-07-13T01:05:54;103.85;97.59;110.92;;
51665;Laerm;37751;52.408;12.536;2023-07-13T01:08:22;102.10;99.16;106.54;;
51665;Laerm;37751;52.408;12.536;2023-07-13T01:10:55;103.86;94.96;109.21;;
51665;Laerm;37751;52.408;12.536;2023-07-13T01:13:25;105.06;54.08;110.77;;
51665;Laerm;37751;52.408;12.536;2023-07-13T01:15:56;104.23;97.82;110.22;;
51665;Laerm;37751;52.408;12.536;2023-07-13T01:18:27;105.85;93.75;111.81;;
51665;Laerm;37751;52.408;12.536;2023-07-13T01:21:01;110.56;104.88;116.32;;
51665;Laerm;37751;52.408;12.536;2023-07-13T01:23:31;110.55;94.02;116.87;;
51665;Laerm;37751;52.408;12.536;2023-07-13T01:26:00;111.14;107.33;117.08;;
51665;Laerm;37751;52.408;12.536;2023-07-13T01:28:29;109.72;106.03;111.67;;
51665;Laerm;37751;52.408;12.536;2023-07-13T01:30:58;105.76;103.98;110.17;;
51665;Laerm;37751;52.408;12.536;2023-07-13T01:33:27;105.49;98.71;111.11;;
51665;Laerm;37751;52.408;12.536;2023-07-13T01:35:56;105.25;102.22;110.85;;
51665;Laerm;37751;52.408;12.536;2023-07-13T01:38:25;105.39;102.27;110.88;;
51665;Laerm;37751;52.408;12.536;2023-07-13T01:40:53;106.00;99.31;110.83;;
51665;Laerm;37751;52.408;12.536;2023-07-13T01:43:24;106.19;98.96;111.64;;
51665;Laerm;37751;52.408;12.536;2023-07-13T01:45:52;105.29;98.84;110.22;;
51665;Laerm;37751;52.408;12.536;2023-07-13T01:48:20;106.29;103.11;111.23;;
51665;Laerm;37751;52.408;12.536;2023-07-13T01:50:48;105.96;102.26;110.85;;
51665;Laerm;37751;52.408;12.536;2023-07-13T01:53:16;105.10;95.76;111.25;;
51665;Laerm;37751;52.408;12.536;2023-07-13T01:55:44;105.94;99.45;111.13;;
51665;Laerm;37751;52.408;12.536;2023-07-13T01:58:12;106.77;101.93;111.45;;
51665;Laerm;37751;52.408;12.536;2023-07-13T02:00:40;105.86;99.30;110.87;;
51665;Laerm;37751;52.408;12.536;2023-07-13T02:03:08;106.50;99.79;111.43;;
51665;Laerm;37751;52.408;12.536;2023-07-13T02:05:36;106.65;100.90;111.52;;
51665;Laerm;37751;52.408;12.536;2023-07-13T02:08:04;107.34;101.18;112.20;;
51665;Laerm;37751;52.408;12.536;2023-07-13T02:10:32;107.82;100.37;112.45;;
51665;Laerm;37751;52.408;12.536;2023-07-13T02:12:59;106.72;101.73;111.86;;
51665;Laerm;37751;52.408;12.536;2023-07-13T02:15:27;107.32;102.26;111.70;;
51665;Laerm;37751;52.408;12.536;2023-07-13T02:17:55;108.71;101.30;114.77;;
51665;Laerm;37751;52.408;12.536;2023-07-13T02:20:25;109.22;103.88;115.17;;
51665;Laerm;37751;52.408;12.536;2023-07-13T02:22:54;108.71;103.03;114.29;;
51665;Laerm;37751;52.408;12.536;2023-07-13T02:25:21;107.74;101.73;111.94;;
51665;Laerm;37751;52.408;12.536;2023-07-13T02:27:49;107.73;99.78;112.98;;
51665;Laerm;37751;52.408;12.536;2023-07-13T02:30:17;107.88;102.11;112.12;;
51665;Laerm;37751;52.408;12.536;2023-07-13T02:32:45;107.33;101.95;110.96;;
51665;Laerm;37751;52.408;12.536;2023-07-13T02:35:13;107.61;100.11;111.32;;
51665;Laerm;37751;52.408;12.536;2023-07-13T02:37:41;108.09;98.86;112.53;;
51665;Laerm;37751;52.408;12.536;2023-07-13T02:40:09;106.89;97.29;112.19;;
51665;Laerm;37751;52.408;12.536;2023-07-13T02:42:39;107.50;100.07;111.58;;
51665;Laerm;37751;52.408;12.536;2023-07-13T02:45:08;109.19;102.25;114.91;;
51665;Laerm;37751;52.408;12.536;2023-07-13T02:47:37;109.12;68.77;115.89;;
51665;Laerm;37751;52.408;12.536;2023-07-13T02:50:05;107.19;99.87;112.19;;
51665;Laerm;37751;52.408;12.536;2023-07-13T02:52:33;107.12;97.96;111.24;;
51665;Laerm;37751;52.408;12.536;2023-07-13T02:55:01;107.29;98.57;111.25;;
51665;Laerm;37751;52.408;12.536;2023-07-13T02:57:30;106.61;92.90;113.56;;
51665;Laerm;37751;52.408;12.536;2023-07-13T03:00:02;107.29;96.93;110.56;;
51665;Laerm;37751;52.408;12.536;2023-07-13T03:02:33;106.47;101.05;110.12;;
51665;Laerm;37751;52.408;12.536;2023-07-13T03:05:04;106.54;99.98;110.82;;
51665;Laerm;37751;52.408;12.536;2023-07-13T03:07:32;106.76;99.27;110.40;;
51665;Laerm;37751;52.408;12.536;2023-07-13T03:10:01;106.54;100.67;110.53;;
51665;Laerm;37751;52.408;12.536;2023-07-13T03:12:38;106.87;101.93;110.74;;
51665;Laerm;37751;52.408;12.536;2023-07-13T03:15:12;106.39;98.79;110.91;;
51665;Laerm;37751;52.408;12.536;2023-07-13T03:17:43;107.17;98.74;110.96;;
51665;Laerm;37751;52.408;12.536;2023-07-13T03:20:11;106.74;101.06;110.77;;
51665;Laerm;37751;52.408;12.536;2023-07-13T03:22:39;106.77;99.72;111.03;;
51665;Laerm;37751;52.408;12.536;2023-07-13T03:25:08;106.95;102.11;110.89;;
51665;Laerm;37751;52.408;12.536;2023-07-13T03:27:37;106.95;101.51;110.63;;
51665;Laerm;37751;52.408;12.536;2023-07-13T03:30:08;106.52;101.36;110.31;;
51665;Laerm;37751;52.408;12.536;2023-07-13T03:32:36;106.40;100.21;110.48;;
51665;Laerm;37751;52.408;12.536;2023-07-13T03:35:05;107.19;102.17;110.41;;
51665;Laerm;37751;52.408;12.536;2023-07-13T03:37:33;106.98;101.85;110.27;;
51665;Laerm;37751;52.408;12.536;2023-07-13T03:40:01;106.86;100.39;110.40;;
51665;Laerm;37751;52.408;12.536;2023-07-13T03:42:31;106.66;100.28;110.58;;
51665;Laerm;37751;52.408;12.536;2023-07-13T03:44:58;106.89;98.94;111.36;;
51665;Laerm;37751;52.408;12.536;2023-07-13T03:47:26;106.76;100.23;110.59;;
51665;Laerm;37751;52.408;12.536;2023-07-13T03:49:54;106.63;101.50;110.36;;
51665;Laerm;37751;52.408;12.536;2023-07-13T03:52:22;107.13;101.39;111.00;;
51665;Laerm;37751;52.408;12.536;2023-07-13T03:54:51;107.08;101.17;110.43;;
51665;Laerm;37751;52.408;12.536;2023-07-13T03:57:21;106.47;99.48;110.22;;
51665;Laerm;37751;52.408;12.536;2023-07-13T03:59:48;106.61;101.26;110.14;;
51665;Laerm;37751;52.408;12.536;2023-07-13T04:02:16;106.90;99.34;110.53;;
51665;Laerm;37751;52.408;12.536;2023-07-13T04:04:45;106.57;98.18;110.13;;
51665;Laerm;37751;52.408;12.536;2023-07-13T04:07:13;107.32;100.22;110.92;;
51665;Laerm;37751;52.408;12.536;2023-07-13T04:09:41;106.66;101.73;110.64;;
51665;Laerm;37751;52.408;12.536;2023-07-13T04:12:10;106.92;100.36;110.19;;
51665;Laerm;37751;52.408;12.536;2023-07-13T04:14:38;106.59;100.46;110.41;;
51665;Laerm;37751;52.408;12.536;2023-07-13T04:17:06;106.82;100.85;110.38;;
51665;Laerm;37751;52.408;12.536;2023-07-13T04:19:34;106.46;100.58;110.91;;
51665;Laerm;37751;52.408;12.536;2023-07-13T04:22:01;106.92;100.88;110.46;;
51665;Laerm;37751;52.408;12.536;2023-07-13T04:24:30;106.55;100.08;110.60;;
51665;Laerm;37751;52.408;12.536;2023-07-13T04:26:57;106.88;99.07;110.60;;
51665;Laerm;37751;52.408;12.536;2023-07-13T04:29:27;106.65;100.33;110.44;;
51665;Laerm;37751;52.408;12.536;2023-07-13T04:31:55;106.45;99.56;110.42;;
51665;Laerm;37751;52.408;12.536;2023-07-13T04:34:23;106.53;97.29;111.03;;
51665;Laerm;37751;52.408;12.536;2023-07-13T04:36:51;106.29;98.82;112.07;;
51665;Laerm;37751;52.408;12.536;2023-07-13T04:39:19;106.57;98.91;110.58;;
51665;Laerm;37751;52.408;12.536;2023-07-13T04:41:48;106.39;98.63;110.81;;
51665;Laerm;37751;52.408;12.536;2023-07-13T04:44:15;106.61;99.32;111.13;;
51665;Laerm;37751;52.408;12.536;2023-07-13T04:46:44;106.65;98.47;110.61;;
51665;Laerm;37751;52.408;12.536;2023-07-13T04:49:12;106.38;98.81;110.63;;
51665;Laerm;37751;52.408;12.536;2023-07-13T04:51:40;106.38;98.51;110.91;;
51665;Laerm;37751;52.408;12.536;2023-07-13T04:54:08;106.60;98.75;110.95;;
51665;Laerm;37751;52.408;12.536;2023-07-13T04:56:36;106.87;98.66;114.43;;
51665;Laerm;37751;52.408;12.536;2023-07-13T04:59:04;106.81;99.12;110.40;;
51665;Laerm;37751;52.408;12.536;2023-07-13T05:01:32;106.95;99.56;110.94;;
51665;Laerm;37751;52.408;12.536;2023-07-13T05:03:59;106.66;98.65;110.65;;
51665;Laerm;37751;52.408;12.536;2023-07-13T05:06:28;106.66;99.52;110.59;;
51665;Laerm;37751;52.408;12.536;2023-07-13T05:08:56;106.74;99.72;110.74;;
51665;Laerm;37751;52.408;12.536;2023-07-13T05:11:24;106.65;98.17;110.59;;
51665;Laerm;37751;52.408;12.536;2023-07-13T05:13:52;106.80;99.88;110.57;;
51665;Laerm;37751;52.408;12.536;2023-07-13T05:16:20;107.50;99.94;115.00;;
51665;Laerm;37751;52.408;12.536;2023-07-13T05:18:47;107.15;98.14;112.50;;
51665;Laerm;37751;52.408;12.536;2023-07-13T05:21:15;106.29;6.00;112.19;;
51665;Laerm;37751;52.408;12.536;2023-07-13T05:23:43;110.15;91.88;114.11;;
51665;Laerm;37751;52.408;12.536;2023-07-13T05:26:11;109.32;98.83;115.49;;
51665;Laerm;37751;52.408;12.536;2023-07-13T05:28:39;108.27;100.20;112.99;;
51665;Laerm;37751;52.408;12.536;2023-07-13T05:31:09;107.11;99.92;113.52;;
51665;Laerm;37751;52.408;12.536;2023-07-13T05:33:39;107.03;99.76;112.89;;
51665;Laerm;37751;52.408;12.536;2023-07-13T05:36:07;107.21;99.17;112.14;;
51665;Laerm;37751;52.408;12.536;2023-07-13T05:38:35;106.41;56.92;111.87;;
51665;Laerm;37751;52.408;12.536;2023-07-13T05:41:03;106.66;96.28;111.38;;
51665;Laerm;37751;52.408;12.536;2023-07-13T05:43:33;106.76;98.74;110.93;;
51665;Laerm;37751;52.408;12.536;2023-07-13T05:46:01;107.43;100.15;113.27;;
51665;Laerm;37751;52.408;12.536;2023-07-13T05:48:29;107.23;100.33;111.34;;
51665;Laerm;37751;52.408;12.536;2023-07-13T05:50:57;107.07;99.05;111.72;;
51665;Laerm;37751;52.408;12.536;2023-07-13T05:53:25;107.48;98.79;111.27;;
51665;Laerm;37751;52.408;12.536;2023-07-13T05:55:54;106.61;97.93;110.63;;
51665;Laerm;37751;52.408;12.536;2023-07-13T05:58:23;106.74;97.97;110.85;;
51665;Laerm;37751;52.408;12.536;2023-07-13T06:01:00;106.56;98.51;110.69;;
51665;Laerm;37751;52.408;12.536;2023-07-13T06:03:29;107.57;100.92;111.75;;
51665;Laerm;37751;52.408;12.536;2023-07-13T06:05:57;107.39;99.38;111.19;;
51665;Laerm;37751;52.408;12.536;2023-07-13T06:08:27;107.28;99.37;113.55;;
51665;Laerm;37751;52.408;12.536;2023-07-13T06:11:02;106.85;99.22;110.80;;
51665;Laerm;37751;52.408;12.536;2023-07-13T06:13:30;107.25;98.96;114.16;;
51665;Laerm;37751;52.408;12.536;2023-07-13T06:15:58;107.32;98.79;113.34;;
51665;Laerm;37751;52.408;12.536;2023-07-13T06:18:26;107.09;42.82;111.03;;
51665;Laerm;37751;52.408;12.536;2023-07-13T06:20:53;103.99;95.07;110.17;;
51665;Laerm;37751;52.408;12.536;2023-07-13T06:23:22;103.32;96.77;109.53;;
51665;Laerm;37751;52.408;12.536;2023-07-13T06:25:51;103.39;94.65;108.83;;
51665;Laerm;37751;52.408;12.536;2023-07-13T06:28:19;103.17;94.55;109.09;;
51665;Laerm;37751;52.408;12.536;2023-07-13T06:30:47;102.04;94.61;108.78;;
51665;Laerm;37751;52.408;12.536;2023-07-13T06:33:15;102.38;94.84;109.36;;
51665;Laerm;37751;52.408;12.536;2023-07-13T06:35:45;101.58;95.11;106.40;;
51665;Laerm;37751;52.408;12.536;2023-07-13T06:38:13;101.60;93.09;105.53;;
51665;Laerm;37751;52.408;12.536;2023-07-13T06:40:41;101.19;93.22;105.36;;
51665;Laerm;37751;52.408;12.536;2023-07-13T06:43:09;100.99;92.88;105.20;;
51665;Laerm;37751;52.408;12.536;2023-07-13T06:45:44;101.66;93.98;105.02;;
51665;Laerm;37751;52.408;12.536;2023-07-13T06:48:19;101.44;93.91;104.99;;
51665;Laerm;37751;52.408;12.536;2023-07-13T06:50:48;106.93;93.98;114.94;;
51665;Laerm;37751;52.408;12.536;2023-07-13T06:53:19;112.81;102.72;117.98;;
51665;Laerm;37751;52.408;12.536;2023-07-13T06:55:53;110.88;101.75;116.13;;
51665;Laerm;37751;52.408;12.536;2023-07-13T06:58:24;110.48;100.05;115.94;;
51665;Laerm;37751;52.408;12.536;2023-07-13T07:00:52;111.25;102.17;115.98;;
51665;Laerm;37751;52.408;12.536;2023-07-13T07:03:20;110.45;99.91;116.79;;
51665;Laerm;37751;52.408;12.536;2023-07-13T07:05:49;106.44;99.53;110.82;;
51665;Laerm;37751;52.408;12.536;2023-07-13T07:08:16;108.77;96.32;116.19;;
51665;Laerm;37751;52.408;12.536;2023-07-13T07:10:45;113.03;57.12;117.05;;
51665;Laerm;37751;52.408;12.536;2023-07-13T07:13:13;110.01;6.00;114.14;;
51665;Laerm;37751;52.408;12.536;2023-07-13T07:15:41;112.49;105.48;114.42;;
51665;Laerm;37751;52.408;12.536;2023-07-13T07:18:09;109.07;69.89;115.72;;
51665;Laerm;37751;52.408;12.536;2023-07-13T07:20:37;87.67;68.91;112.37;;
51665;Laerm;37751;52.408;12.536;2023-07-13T07:23:05;90.89;68.81;109.80;;
51665;Laerm;37751;52.408;12.536;2023-07-13T07:25:33;82.42;64.62;108.13;;
51665;Laerm;37751;52.408;12.536;2023-07-13T07:28:04;108.10;71.81;116.02;;
51665;Laerm;37751;52.408;12.536;2023-07-13T07:30:35;109.42;65.99;115.49;;
51665;Laerm;37751;52.408;12.536;2023-07-13T07:33:06;109.15;101.43;115.04;;
51665;Laerm;37751;52.408;12.536;2023-07-13T07:35:34;110.50;101.49;115.73;;
51665;Laerm;37751;52.408;12.536;2023-07-13T07:38:08;110.36;102.18;115.89;;
51665;Laerm;37751;52.408;12.536;2023-07-13T07:40:40;109.74;102.62;115.39;;
51665;Laerm;37751;52.408;12.536;2023-07-13T07:43:12;109.11;100.71;115.56;;
51665;Laerm;37751;52.408;12.536;2023-07-13T07:45:41;108.93;102.29;114.48;;
51665;Laerm;37751;52.408;12.536;2023-07-13T07:48:09;108.01;100.28;111.45;;
51665;Laerm;37751;52.408;12.536;2023-07-13T07:50:37;107.33;97.50;111.13;;
51665;Laerm;37751;52.408;12.536;2023-07-13T07:53:07;107.63;99.18;111.42;;
51665;Laerm;37751;52.408;12.536;2023-07-13T07:55:35;108.96;100.20;114.52;;
51665;Laerm;37751;52.408;12.536;2023-07-13T07:58:06;109.07;100.84;116.60;;
51665;Laerm;37751;52.408;12.536;2023-07-13T08:01:01;110.07;101.09;115.89;;
51665;Laerm;37751;52.408;12.536;2023-07-13T08:03:32;112.34;104.57;116.63;;
51665;Laerm;37751;52.408;12.536;2023-07-13T08:06:03;112.35;105.05;116.96;;
51665;Laerm;37751;52.408;12.536;2023-07-13T08:08:34;112.79;104.26;116.90;;
51665;Laerm;37751;52.408;12.536;2023-07-13T08:11:05;111.88;101.30;116.59;;
51665;Laerm;37751;52.408;12.536;2023-07-13T08:13:53;108.28;98.04;114.69;;
51665;Laerm;37751;52.408;12.536;2023-07-13T08:16:22;108.83;101.23;116.50;;
51665;Laerm;37751;52.408;12.536;2023-07-13T08:18:51;105.58;56.55;114.25;;
51665;Laerm;37751;52.408;12.536;2023-07-13T08:21:18;102.16;55.31;113.72;;
51665;Laerm;37751;52.408;12.536;2023-07-13T08:23:49;111.86;73.99;114.06;;
51665;Laerm;37751;52.408;12.536;2023-07-13T08:26:17;101.42;89.06;107.85;;
51665;Laerm;37751;52.408;12.536;2023-07-13T08:28:45;100.20;91.93;102.40;;
51665;Laerm;37751;52.408;12.536;2023-07-13T08:31:13;100.67;93.47;104.68;;
51665;Laerm;37751;52.408;12.536;2023-07-13T08:33:43;100.88;85.14;102.96;;
51665;Laerm;37751;52.408;12.536;2023-07-13T08:36:10;101.72;89.30;106.32;;
51665;Laerm;37751;52.408;12.536;2023-07-13T08:38:38;105.22;92.88;113.74;;
51665;Laerm;37751;52.408;12.536;2023-07-13T08:41:14;103.47;52.30;113.78;;
51665;Laerm;37751;52.408;12.536;2023-07-13T08:43:47;62.87;51.13;71.58;;
51665;Laerm;37751;52.408;12.536;2023-07-13T08:46:33;62.25;54.13;73.57;;
51665;Laerm;37751;52.408;12.536;2023-07-13T08:49:15;70.00;54.43;94.28;;
51665;Laerm;37751;52.408;12.536;2023-07-13T08:51:57;65.05;55.01;75.08;;
51665;Laerm;37751;52.408;12.536;2023-07-13T08:54:37;63.40;52.66;72.48;;
51665;Laerm;37751;52.408;12.536;2023-07-13T08:57:14;64.68;54.04;76.55;;
51665;Laerm;37751;52.408;12.536;2023-07-13T08:59:43;64.85;55.45;75.39;;
51665;Laerm;37751;52.408;12.536;2023-07-13T09:05:38;63.88;54.54;74.47;;
51665;Laerm;37751;52.408;12.536;2023-07-13T09:09:02;65.46;51.58;77.58;;
51665;Laerm;37751;52.408;12.536;2023-07-13T09:11:54;67.25;54.20;84.24;;
51665;Laerm;37751;52.408;12.536;2023-07-13T09:17:25;63.68;52.53;72.50;;
51665;Laerm;37751;52.408;12.536;2023-07-13T09:20:34;68.91;53.60;90.24;;
51665;Laerm;37751;52.408;12.536;2023-07-13T09:23:03;65.97;54.63;78.80;;
51665;Laerm;37751;52.408;12.536;2023-07-13T09:25:36;64.18;51.40;82.87;;
51665;Laerm;37751;52.408;12.536;2023-07-13T09:28:15;63.29;52.54;71.44;;
51665;Laerm;37751;52.408;12.536;2023-07-13T09:30:58;63.04;51.71;74.89;;
51665;Laerm;37751;52.408;12.536;2023-07-13T09:33:29;63.51;53.92;73.40;;
51665;Laerm;37751;52.408;12.536;2023-07-13T09:35:58;63.00;50.45;72.95;;
51665;Laerm;37751;52.408;12.536;2023-07-13T09:38:28;65.30;54.62;77.44;;
51665;Laerm;37751;52.408;12.536;2023-07-13T09:44:10;72.62;55.12;96.59;;
51665;Laerm;37751;52.408;12.536;2023-07-13T09:46:57;63.65;51.73;72.77;;
51665;Laerm;37751;52.408;12.536;2023-07-13T09:49:34;64.96;55.96;84.06;;
51665;Laerm;37751;52.408;12.536;2023-07-13T09:52:12;63.48;51.38;74.63;;
51665;Laerm;37751;52.408;12.536;2023-07-13T09:54:50;68.22;50.57;84.88;;
51665;Laerm;37751;52.408;12.536;2023-07-13T09:57:26;64.62;54.02;73.77;;
51665;Laerm;37751;52.408;12.536;2023-07-13T10:00:30;64.49;51.60;79.06;;
51665;Laerm;37751;52.408;12.536;2023-07-13T10:03:13;65.15;53.09;74.59;;
51665;Laerm;37751;52.408;12.536;2023-07-13T10:05:50;62.91;50.97;71.89;;
51665;Laerm;37751;52.408;12.536;2023-07-13T10:08:26;63.31;52.95;76.48;;
51665;Laerm;37751;52.408;12.536;2023-07-13T10:11:01;68.27;54.98;86.57;;
51665;Laerm;37751;52.408;12.536;2023-07-13T10:13:53;63.40;53.80;74.83;;
51665;Laerm;37751;52.408;12.536;2023-07-13T10:16:36;64.77;52.87;76.01;;
51665;Laerm;37751;52.408;12.536;2023-07-13T10:19:29;67.70;50.56;86.53;;
51665;Laerm;37751;52.408;12.536;2023-07-13T10:22:26;65.50;53.29;77.91;;
51665;Laerm;37751;52.408;12.536;2023-07-13T10:24:59;65.26;54.33;81.85;;
51665;Laerm;37751;52.408;12.536;2023-07-13T10:27:34;65.12;56.96;80.91;;
51665;Laerm;37751;52.408;12.536;2023-07-13T10:30:20;66.12;54.42;79.25;;
51665;Laerm;37751;52.408;12.536;2023-07-13T10:33:12;66.48;55.29;76.79;;
51665;Laerm;37751;52.408;12.536;2023-07-13T10:35:51;65.00;52.54;73.68;;
51665;Laerm;37751;52.408;12.536;2023-07-13T10:38:41;65.00;52.32;75.08;;
51665;Laerm;37751;52.408;12.536;2023-07-13T10:41:23;69.56;56.32;93.44;;
51665;Laerm;37751;52.408;12.536;2023-07-13T10:43:57;65.33;53.24;73.71;;
51665;Laerm;37751;52.408;12.536;2023-07-13T10:46:28;64.20;48.88;77.80;;
51665;Laerm;37751;52.408;12.536;2023-07-13T10:49:02;79.56;53.39;97.51;;
51665;Laerm;37751;52.408;12.536;2023-07-13T10:51:36;65.48;53.70;79.23;;
51665;Laerm;37751;52.408;12.536;2023-07-13T10:54:20;65.32;54.69;80.19;;
51665;Laerm;37751;52.408;12.536;2023-07-13T10:57:07;65.66;52.65;75.05;;
51665;Laerm;37751;52.408;12.536;2023-07-13T10:59:37;64.10;51.78;76.27;;
51665;Laerm;37751;52.408;12.536;2023-07-13T11:02:10;64.26;53.30;74.77;;
51665;Laerm;37751;52.408;12.536;2023-07-13T11:04:47;63.43;54.49;73.59;;
51665;Laerm;37751;52.408;12.536;2023-07-13T11:07:30;70.75;52.03;91.38;;
51665;Laerm;37751;52.408;12.536;2023-07-13T11:10:30;64.47;55.86;75.51;;
51665;Laerm;37751;52.408;12.536;2023-07-13T11:16:55;64.41;53.80;80.07;;
51665;Laerm;37751;52.408;12.536;2023-07-13T11:19:37;65.43;53.00;76.70;;
51665;Laerm;37751;52.408;12.536;2023-07-13T11:22:14;65.45;53.71;79.62;;
51665;Laerm;37751;52.408;12.536;2023-07-13T11:24:53;63.54;52.62;72.85;;
51665;Laerm;37751;52.408;12.536;2023-07-13T11:27:43;63.89;53.20;73.58;;
51665;Laerm;37751;52.408;12.536;2023-07-13T11:35:37;62.01;51.64;72.91;;
51665;Laerm;37751;52.408;12.536;2023-07-13T11:38:22;63.70;54.14;83.89;;
51665;Laerm;37751;52.408;12.536;2023-07-13T11:41:01;65.11;53.13;73.52;;
51665;Laerm;37751;52.408;12.536;2023-07-13T11:43:33;65.42;56.83;77.45;;
51665;Laerm;37751;52.408;12.536;2023-07-13T11:46:26;65.28;56.68;71.94;;
51665;Laerm;37751;52.408;12.536;2023-07-13T11:48:55;64.34;56.06;76.12;;
51665;Laerm;37751;52.408;12.536;2023-07-13T11:51:35;64.84;54.03;72.93;;
51665;Laerm;37751;52.408;12.536;2023-07-13T11:54:31;64.83;55.63;78.11;;
51665;Laerm;37751;52.408;12.536;2023-07-13T11:59:54;64.67;53.95;72.12;;
51665;Laerm;37751;52.408;12.536;2023-07-13T12:02:33;65.51;55.46;81.10;;
51665;Laerm;37751;52.408;12.536;2023-07-13T12:05:03;65.85;54.36;80.46;;
51665;Laerm;37751;52.408;12.536;2023-07-13T12:07:36;64.56;53.45;74.01;;
51665;Laerm;37751;52.408;12.536;2023-07-13T12:10:28;64.89;55.75;79.18;;
51665;Laerm;37751;52.408;12.536;2023-07-13T12:15:45;63.80;52.31;72.89;;
51665;Laerm;37751;52.408;12.536;2023-07-13T12:18:28;65.74;51.27;75.69;;
51665;Laerm;37751;52.408;12.536;2023-07-13T12:21:22;73.42;57.50;88.97;;
51665;Laerm;37751;52.408;12.536;2023-07-13T12:23:54;64.25;52.64;74.69;;
51665;Laerm;37751;52.408;12.536;2023-07-13T12:26:24;65.30;52.75;77.85;;
51665;Laerm;37751;52.408;12.536;2023-07-13T12:28:57;63.98;53.72;72.29;;
51665;Laerm;37751;52.408;12.536;2023-07-13T12:31:30;65.89;55.59;74.29;;
51665;Laerm;37751;52.408;12.536;2023-07-13T12:34:10;64.64;54.32;73.99;;
51665;Laerm;37751;52.408;12.536;2023-07-13T12:36:54;65.40;56.68;77.81;;
51665;Laerm;37751;52.408;12.536;2023-07-13T12:39:39;71.83;57.43;93.84;;
51665;Laerm;37751;52.408;12.536;2023-07-13T12:42:28;64.94;57.85;72.48;;
51665;Laerm;37751;52.408;12.536;2023-07-13T12:45:29;65.87;56.88;77.10;;
51665;Laerm;37751;52.408;12.536;2023-07-13T12:48:12;63.89;54.44;71.88;;
51665;Laerm;37751;52.408;12.536;2023-07-13T12:50:49;64.69;54.55;76.22;;
51665;Laerm;37751;52.408;12.536;2023-07-13T12:53:27;65.24;56.08;72.48;;
51665;Laerm;37751;52.408;12.536;2023-07-13T12:55:59;64.31;55.91;72.57;;
51665;Laerm;37751;52.408;12.536;2023-07-13T12:58:38;64.15;53.11;77.72;;
51665;Laerm;37751;52.408;12.536;2023-07-13T13:01:10;65.03;57.79;75.07;;
51665;Laerm;37751;52.408;12.536;2023-07-13T13:03:50;71.07;54.93;96.08;;
51665;Laerm;37751;52.408;12.536;2023-07-13T13:06:27;64.29;56.94;74.12;;
51665;Laerm;37751;52.408;12.536;2023-07-13T13:08:58;65.51;54.72;78.55;;
51665;Laerm;37751;52.408;12.536;2023-07-13T13:11:31;65.56;57.53;75.62;;
51665;Laerm;37751;52.408;12.536;2023-07-13T13:13:59;65.12;55.65;75.56;;
51665;Laerm;37751;52.408;12.536;2023-07-13T13:16:51;65.68;58.66;79.26;;
51665;Laerm;37751;52.408;12.536;2023-07-13T13:19:28;65.98;59.38;81.48;;
51665;Laerm;37751;52.408;12.536;2023-07-13T13:21:57;65.65;58.54;74.04;;
51665;Laerm;37751;52.408;12.536;2023-07-13T13:24:27;65.70;57.63;77.41;;
51665;Laerm;37751;52.408;12.536;2023-07-13T13:26:58;66.41;58.60;82.87;;
51665;Laerm;37751;52.408;12.536;2023-07-13T13:29:26;71.81;55.66;94.87;;
51665;Laerm;37751;52.408;12.536;2023-07-13T13:31:59;64.25;52.97;76.05;;
51665;Laerm;37751;52.408;12.536;2023-07-13T13:34:27;63.47;53.91;75.22;;
51665;Laerm;37751;52.408;12.536;2023-07-13T13:36:55;67.98;55.35;78.98;;
51665;Laerm;37751;52.408;12.536;2023-07-13T13:39:35;65.78;57.95;77.09;;
51665;Laerm;37751;52.408;12.536;2023-07-13T13:42:05;67.42;57.95;79.10;;
51665;Laerm;37751;52.408;12.536;2023-07-13T13:44:33;64.05;54.31;77.85;;
51665;Laerm;37751;52.408;12.536;2023-07-13T13:47:04;64.84;55.63;74.15;;
51665;Laerm;37751;52.408;12.536;2023-07-13T13:49:43;65.44;55.51;73.14;;
51665;Laerm;37751;52.408;12.536;2023-07-13T13:52:12;65.17;55.29;71.74;;
51665;Laerm;37751;52.408;12.536;2023-07-13T13:54:41;65.95;56.35;74.36;;
51665;Laerm;37751;52.408;12.536;2023-07-13T13:57:09;65.48;54.21;73.36;;
51665;Laerm;37751;52.408;12.536;2023-07-13T13:59:48;66.28;54.43;84.63;;
51665;Laerm;37751;52.408;12.536;2023-07-13T14:02:25;63.46;51.54;73.87;;
51665;Laerm;37751;52.408;12.536;2023-07-13T14:05:01;65.05;56.72;71.87;;
51665;Laerm;37751;52.408;12.536;2023-07-13T14:07:34;65.87;57.03;78.49;;
51665;Laerm;37751;52.408;12.536;2023-07-13T14:10:12;64.16;52.06;72.51;;
51665;Laerm;37751;52.408;12.536;2023-07-13T14:12:43;66.32;55.69;84.31;;